This is the latest recevied weather packets stored in our database for station/object KC4MCQ-10. If no packets are shown the sender has not sent any weather packets the latest 10 day(s).
| Time | Temp. | Humidity | Pressure | Rain* | Wind** | Luminosity | Snow |
|---|---|---|---|---|---|---|---|
| 1787758456 | 29.44° C | 81% | 1018.4 hPa | 0 mm | 0 m/s | - | - |
| 1787757855 | 30° C | 82% | 1018.3 hPa | 0 mm | 0 m/s | - | - |
| 1787757254 | 29.44° C | 81% | 1018.4 hPa | 0 mm | 0 m/s | - | - |
| 1787756648 | 28.89° C | 82% | 1018.2 hPa | 0 mm | 0 m/s | - | - |
| 1787756046 | 28.33° C | 83% | 1018.1 hPa | 0 mm | 0 m/s | - | - |
| 1787755446 | 28.33° C | 84% | 1017.9 hPa | 0 mm | 0 m/s | - | - |
| 1787754241 | 27.78° C | 85% | 1017.9 hPa | 0 mm | 0 m/s | - | - |
| 1787752440 | 26.67° C | 90% | 1018.3 hPa | 0 mm | 0 m/s | - | - |
| 1787751830 | 25.56° C | 91% | 1018.5 hPa | 0 mm | 0 m/s | - | - |
| 1787751213 | 25.56° C | 92% | 1018.4 hPa | 0 mm | 0 m/s | - | - |
| 1787750612 | 25° C | 93% | 1018.4 hPa | 0 mm | 0 m/s | - | - |
| 1787750012 | 24.44° C | 93% | 1018.6 hPa | 0 mm | 0 m/s | - | - |
| 1787749407 | 24.44° C | 93% | 1018.4 hPa | 0 mm | 0 m/s | - | - |
| 1787748807 | 24.44° C | 93% | 1018.3 hPa | 19.3 mm | 0 m/s | - | - |
| 1787748204 | 23.89° C | 94% | 1018.2 hPa | 19.3 mm | 0 m/s | - | - |
| 1787747603 | 23.89° C | 93% | 1018.2 hPa | 19.3 mm | 0 m/s | - | - |
| 1787746988 | 23.33° C | 94% | 1018.2 hPa | 19.3 mm | 0 m/s | - | - |
| 1787746381 | 23.33° C | 94% | 1018 hPa | 19.3 mm | 0 m/s | - | - |
| 1787745781 | 23.33° C | 94% | 1018 hPa | 19.3 mm | 0 m/s | - | - |
| 1787745179 | 22.78° C | 93% | 1017.9 hPa | 27.18 mm | 0 m/s | - | - |
| 1787744576 | 22.78° C | 93% | 1017.8 hPa | 27.18 mm | 0.45 m/s, 95° | - | - |
| 1787743975 | 22.78° C | 93% | 1017.7 hPa | 27.18 mm | 0.89 m/s, 95° | - | - |
| 1787743357 | 22.78° C | 93% | 1017.7 hPa | 27.18 mm | 0.45 m/s, 95° | - | - |
| 1787742757 | 22.78° C | 93% | 1017.6 hPa | 27.18 mm | 0.89 m/s, 130° | - | - |
| 1787742156 | 22.78° C | 93% | 1017.3 hPa | 27.18 mm | 0 m/s | - | - |
* Rain latest 24 hours (hover to see other rain measurements)
** Current wind speed in m/s (hover to see current wind gust speed)